sensor_id;sensor_type;location;lat;lon;timestamp;pressure;altitude;pressure_sealevel;temperature;humidity
36192;BME280;22233;42.708;23.360;2023-03-21T00:00:14;95263.00;;;14.96;47.47
36192;BME280;22233;42.708;23.360;2023-03-21T00:02:40;95245.38;;;14.82;47.70
36192;BME280;22233;42.708;23.360;2023-03-21T00:05:06;95253.09;;;14.92;47.85
36192;BME280;22233;42.708;23.360;2023-03-21T00:07:31;95252.63;;;15.02;47.56
36192;BME280;22233;42.708;23.360;2023-03-21T00:09:57;95244.41;;;15.02;47.73
36192;BME280;22233;42.708;23.360;2023-03-21T00:12:22;95254.13;;;15.00;48.04
36192;BME280;22233;42.708;23.360;2023-03-21T00:14:47;95246.03;;;14.91;47.69
36192;BME280;22233;42.708;23.360;2023-03-21T00:17:13;95257.88;;;15.07;47.58
36192;BME280;22233;42.708;23.360;2023-03-21T00:19:40;95258.00;;;14.49;48.79
36192;BME280;22233;42.708;23.360;2023-03-21T00:22:06;95255.41;;;14.53;48.36
36192;BME280;22233;42.708;23.360;2023-03-21T00:24:32;95258.13;;;14.77;48.21
36192;BME280;22233;42.708;23.360;2023-03-21T00:26:57;95238.66;;;14.67;48.26
36192;BME280;22233;42.708;23.360;2023-03-21T00:29:23;95243.44;;;14.70;48.08
36192;BME280;22233;42.708;23.360;2023-03-21T00:31:48;95239.66;;;14.50;48.58
36192;BME280;22233;42.708;23.360;2023-03-21T00:34:13;95249.22;;;14.44;48.25
36192;BME280;22233;42.708;23.360;2023-03-21T00:36:39;95253.91;;;14.55;48.41
36192;BME280;22233;42.708;23.360;2023-03-21T00:39:05;95246.19;;;14.57;48.61
36192;BME280;22233;42.708;23.360;2023-03-21T00:41:30;95243.44;;;14.45;48.57
36192;BME280;22233;42.708;23.360;2023-03-21T00:43:56;95268.38;;;14.68;48.53
36192;BME280;22233;42.708;23.360;2023-03-21T00:46:22;95245.84;;;14.59;48.21
36192;BME280;22233;42.708;23.360;2023-03-21T00:48:47;95252.69;;;14.65;48.12
36192;BME280;22233;42.708;23.360;2023-03-21T00:51:18;95254.72;;;14.68;48.07
36192;BME280;22233;42.708;23.360;2023-03-21T00:53:50;95256.00;;;14.71;48.36
36192;BME280;22233;42.708;23.360;2023-03-21T00:56:15;95235.81;;;14.63;48.47
36192;BME280;22233;42.708;23.360;2023-03-21T00:58:41;95244.56;;;14.69;48.17
36192;BME280;22233;42.708;23.360;2023-03-21T01:01:06;95243.78;;;14.68;48.07
36192;BME280;22233;42.708;23.360;2023-03-21T01:03:33;95238.66;;;14.67;48.61
36192;BME280;22233;42.708;23.360;2023-03-21T01:06:08;95236.28;;;14.65;48.68
36192;BME280;22233;42.708;23.360;2023-03-21T01:08:36;95252.22;;;14.51;48.68
36192;BME280;22233;42.708;23.360;2023-03-21T01:11:05;95232.97;;;14.35;49.05
36192;BME280;22233;42.708;23.360;2023-03-21T01:13:32;95248.56;;;14.47;48.91
36192;BME280;22233;42.708;23.360;2023-03-21T01:15:58;95241.03;;;14.44;49.66
36192;BME280;22233;42.708;23.360;2023-03-21T01:18:26;95248.31;;;14.39;49.45
36192;BME280;22233;42.708;23.360;2023-03-21T01:20:55;95227.59;;;14.26;49.40
36192;BME280;22233;42.708;23.360;2023-03-21T01:23:21;95239.34;;;14.39;49.63
36192;BME280;22233;42.708;23.360;2023-03-21T01:25:48;95218.72;;;14.05;49.93
36192;BME280;22233;42.708;23.360;2023-03-21T01:28:14;95219.84;;;14.16;49.64
36192;BME280;22233;42.708;23.360;2023-03-21T01:30:44;95230.78;;;14.16;49.78
36192;BME280;22233;42.708;23.360;2023-03-21T01:33:10;95222.34;;;13.96;49.77
36192;BME280;22233;42.708;23.360;2023-03-21T01:35:36;95242.84;;;14.03;50.47
36192;BME280;22233;42.708;23.360;2023-03-21T01:38:01;95232.28;;;13.80;50.80
36192;BME280;22233;42.708;23.360;2023-03-21T01:40:27;95241.31;;;13.81;50.30
36192;BME280;22233;42.708;23.360;2023-03-21T01:42:52;95240.81;;;13.66;50.61
36192;BME280;22233;42.708;23.360;2023-03-21T01:48:27;95224.44;;;13.33;51.06
36192;BME280;22233;42.708;23.360;2023-03-21T01:50:53;95228.81;;;13.04;51.66
36192;BME280;22233;42.708;23.360;2023-03-21T01:53:21;95235.00;;;12.92;52.17
36192;BME280;22233;42.708;23.360;2023-03-21T01:55:48;95230.72;;;12.83;53.55
36192;BME280;22233;42.708;23.360;2023-03-21T01:58:14;95226.59;;;12.97;52.64
36192;BME280;22233;42.708;23.360;2023-03-21T02:00:43;95228.19;;;12.77;53.07
36192;BME280;22233;42.708;23.360;2023-03-21T02:03:09;95236.31;;;12.86;52.57
36192;BME280;22233;42.708;23.360;2023-03-21T02:08:06;95229.59;;;13.05;52.63
36192;BME280;22233;42.708;23.360;2023-03-21T02:10:32;95222.91;;;12.22;54.56
36192;BME280;22233;42.708;23.360;2023-03-21T02:13:02;95224.69;;;12.47;54.29
36192;BME280;22233;42.708;23.360;2023-03-21T02:15:37;95218.97;;;12.70;53.53
36192;BME280;22233;42.708;23.360;2023-03-21T02:21:16;95227.72;;;12.75;53.60
36192;BME280;22233;42.708;23.360;2023-03-21T02:37:41;95220.34;;;12.97;52.31
36192;BME280;22233;42.708;23.360;2023-03-21T02:40:14;95223.31;;;12.92;51.81
36192;BME280;22233;42.708;23.360;2023-03-21T02:45:49;95224.22;;;12.96;52.41
36192;BME280;22233;42.708;23.360;2023-03-21T02:48:21;95222.47;;;12.91;52.36
36192;BME280;22233;42.708;23.360;2023-03-21T02:50:52;95210.66;;;12.66;53.04
36192;BME280;22233;42.708;23.360;2023-03-21T02:53:22;95223.34;;;12.62;53.58
36192;BME280;22233;42.708;23.360;2023-03-21T02:55:50;95220.88;;;12.69;53.02
36192;BME280;22233;42.708;23.360;2023-03-21T02:58:22;95213.97;;;12.72;52.47
36192;BME280;22233;42.708;23.360;2023-03-21T03:00:51;95228.59;;;12.88;52.12
36192;BME280;22233;42.708;23.360;2023-03-21T03:03:19;95226.22;;;12.87;52.07
36192;BME280;22233;42.708;23.360;2023-03-21T03:05:51;95216.06;;;12.96;52.73
36192;BME280;22233;42.708;23.360;2023-03-21T03:11:25;95222.94;;;12.93;52.60
36192;BME280;22233;42.708;23.360;2023-03-21T03:16:55;95222.03;;;13.10;51.81
36192;BME280;22233;42.708;23.360;2023-03-21T03:19:29;95221.66;;;13.12;51.99
36192;BME280;22233;42.708;23.360;2023-03-21T03:22:00;95196.97;;;12.96;52.31
36192;BME280;22233;42.708;23.360;2023-03-21T03:24:40;95230.22;;;13.10;52.30
36192;BME280;22233;42.708;23.360;2023-03-21T03:27:13;95225.16;;;13.00;52.72
36192;BME280;22233;42.708;23.360;2023-03-21T03:29:41;95210.09;;;12.22;54.37
36192;BME280;22233;42.708;23.360;2023-03-21T03:32:17;95214.72;;;11.92;55.96
36192;BME280;22233;42.708;23.360;2023-03-21T03:34:52;95224.97;;;11.77;56.28
36192;BME280;22233;42.708;23.360;2023-03-21T03:37:24;95221.47;;;11.68;55.95
36192;BME280;22233;42.708;23.360;2023-03-21T03:42:34;95223.03;;;11.95;54.75
36192;BME280;22233;42.708;23.360;2023-03-21T03:45:01;95215.44;;;12.10;54.58
36192;BME280;22233;42.708;23.360;2023-03-21T03:50:45;95229.34;;;11.52;56.35
36192;BME280;22233;42.708;23.360;2023-03-21T03:52:59;95223.47;;;11.33;56.55
36192;BME280;22233;42.708;23.360;2023-03-21T03:55:26;95209.09;;;11.24;56.52
36192;BME280;22233;42.708;23.360;2023-03-21T03:57:59;95217.84;;;11.38;56.52
36192;BME280;22233;42.708;23.360;2023-03-21T04:00:24;95224.69;;;11.53;55.81
36192;BME280;22233;42.708;23.360;2023-03-21T04:02:52;95222.78;;;11.62;56.17
36192;BME280;22233;42.708;23.360;2023-03-21T04:05:18;95235.53;;;11.79;55.46
36192;BME280;22233;42.708;23.360;2023-03-21T04:07:46;95231.69;;;11.89;55.67
36192;BME280;22233;42.708;23.360;2023-03-21T04:10:15;95217.75;;;11.82;55.20
36192;BME280;22233;42.708;23.360;2023-03-21T04:12:41;95210.38;;;11.82;55.21
36192;BME280;22233;42.708;23.360;2023-03-21T04:15:06;95217.28;;;11.79;55.09
36192;BME280;22233;42.708;23.360;2023-03-21T04:17:32;95230.44;;;11.77;54.91
36192;BME280;22233;42.708;23.360;2023-03-21T04:19:58;95228.81;;;11.76;55.73
36192;BME280;22233;42.708;23.360;2023-03-21T04:22:23;95222.88;;;11.92;56.02
36192;BME280;22233;42.708;23.360;2023-03-21T04:24:49;95220.28;;;11.87;55.29
36192;BME280;22233;42.708;23.360;2023-03-21T04:27:15;95211.81;;;11.88;54.83
36192;BME280;22233;42.708;23.360;2023-03-21T04:29:41;95217.28;;;11.79;55.92
36192;BME280;22233;42.708;23.360;2023-03-21T04:32:07;95203.97;;;11.87;54.69
36192;BME280;22233;42.708;23.360;2023-03-21T04:34:41;95212.47;;;11.85;54.76
36192;BME280;22233;42.708;23.360;2023-03-21T04:37:08;95209.75;;;11.85;55.54
36192;BME280;22233;42.708;23.360;2023-03-21T04:39:36;95209.28;;;11.83;56.35
36192;BME280;22233;42.708;23.360;2023-03-21T04:42:03;95215.22;;;11.76;55.97
36192;BME280;22233;42.708;23.360;2023-03-21T04:44:28;95223.28;;;11.55;57.48
36192;BME280;22233;42.708;23.360;2023-03-21T04:46:54;95222.94;;;11.66;56.85
36192;BME280;22233;42.708;23.360;2023-03-21T04:49:20;95212.03;;;11.66;55.88
36192;BME280;22233;42.708;23.360;2023-03-21T04:51:45;95223.00;;;11.87;55.87
36192;BME280;22233;42.708;23.360;2023-03-21T04:54:11;95228.41;;;11.57;56.95
36192;BME280;22233;42.708;23.360;2023-03-21T04:56:38;95230.00;;;11.49;56.08
36192;BME280;22233;42.708;23.360;2023-03-21T04:59:10;95230.47;;;11.43;56.34
36192;BME280;22233;42.708;23.360;2023-03-21T05:01:36;95219.13;;;11.40;57.14
36192;BME280;22233;42.708;23.360;2023-03-21T05:04:02;95222.66;;;11.50;57.04
36192;BME280;22233;42.708;23.360;2023-03-21T05:06:28;95233.97;;;11.69;56.39
36192;BME280;22233;42.708;23.360;2023-03-21T05:08:55;95220.38;;;11.69;56.08
36192;BME280;22233;42.708;23.360;2023-03-21T05:11:27;95227.38;;;11.70;56.17
36192;BME280;22233;42.708;23.360;2023-03-21T05:13:54;95231.56;;;11.68;55.86
36192;BME280;22233;42.708;23.360;2023-03-21T05:16:20;95230.47;;;11.60;56.36
36192;BME280;22233;42.708;23.360;2023-03-21T05:18:49;95230.59;;;11.72;56.14
36192;BME280;22233;42.708;23.360;2023-03-21T05:21:15;95208.53;;;11.56;56.68
36192;BME280;22233;42.708;23.360;2023-03-21T05:23:42;95234.72;;;11.78;55.89
36192;BME280;22233;42.708;23.360;2023-03-21T05:26:08;95222.56;;;11.76;56.09
36192;BME280;22233;42.708;23.360;2023-03-21T05:28:35;95231.38;;;11.90;56.26
36192;BME280;22233;42.708;23.360;2023-03-21T05:31:03;95231.69;;;11.80;56.68
36192;BME280;22233;42.708;23.360;2023-03-21T05:33:29;95236.16;;;11.85;56.46
36192;BME280;22233;42.708;23.360;2023-03-21T05:35:55;95226.56;;;11.87;56.14
36192;BME280;22233;42.708;23.360;2023-03-21T05:38:20;95225.41;;;11.88;56.76
36192;BME280;22233;42.708;23.360;2023-03-21T05:40:47;95227.28;;;12.05;56.19
36192;BME280;22233;42.708;23.360;2023-03-21T05:43:13;95239.44;;;12.16;55.33
36192;BME280;22233;42.708;23.360;2023-03-21T05:45:39;95223.84;;;11.87;56.68
36192;BME280;22233;42.708;23.360;2023-03-21T05:48:04;95224.94;;;11.95;55.97
36192;BME280;22233;42.708;23.360;2023-03-21T05:50:30;95226.53;;;11.96;55.96
36192;BME280;22233;42.708;23.360;2023-03-21T05:52:56;95218.06;;;11.97;56.67
36192;BME280;22233;42.708;23.360;2023-03-21T05:55:21;95215.59;;;12.13;56.40
36192;BME280;22233;42.708;23.360;2023-03-21T05:57:47;95202.06;;;12.26;55.90
36192;BME280;22233;42.708;23.360;2023-03-21T06:00:13;95217.91;;;12.53;55.71
36192;BME280;22233;42.708;23.360;2023-03-21T06:02:38;95219.94;;;12.65;55.70
36192;BME280;22233;42.708;23.360;2023-03-21T06:05:04;95211.50;;;12.58;55.52
36192;BME280;22233;42.708;23.360;2023-03-21T06:07:31;95206.38;;;12.56;54.47
36192;BME280;22233;42.708;23.360;2023-03-21T06:09:56;95207.72;;;12.71;54.99
36192;BME280;22233;42.708;23.360;2023-03-21T06:12:22;95212.97;;;12.76;54.30
36192;BME280;22233;42.708;23.360;2023-03-21T06:14:47;95215.69;;;12.97;54.70
36192;BME280;22233;42.708;23.360;2023-03-21T06:17:13;95199.75;;;13.08;54.34
36192;BME280;22233;42.708;23.360;2023-03-21T06:19:38;95208.44;;;13.23;53.23
36192;BME280;22233;42.708;23.360;2023-03-21T06:22:04;95209.78;;;13.16;53.51
36192;BME280;22233;42.708;23.360;2023-03-21T06:24:30;95207.38;;;13.15;54.10
36192;BME280;22233;42.708;23.360;2023-03-21T06:26:55;95204.38;;;13.29;53.61
36192;BME280;22233;42.708;23.360;2023-03-21T06:29:21;95204.38;;;13.29;54.76
36192;BME280;22233;42.708;23.360;2023-03-21T06:31:46;95209.91;;;13.41;54.62
36192;BME280;22233;42.708;23.360;2023-03-21T06:34:12;95205.16;;;13.50;54.56
36192;BME280;22233;42.708;23.360;2023-03-21T06:36:37;95198.09;;;13.49;53.83
36192;BME280;22233;42.708;23.360;2023-03-21T06:39:03;95215.81;;;13.43;55.34
36192;BME280;22233;42.708;23.360;2023-03-21T06:41:30;95212.03;;;13.35;55.61
36192;BME280;22233;42.708;23.360;2023-03-21T06:43:55;95214.38;;;13.25;55.64
36192;BME280;22233;42.708;23.360;2023-03-21T06:46:20;95208.63;;;13.17;56.62
36192;BME280;22233;42.708;23.360;2023-03-21T06:48:46;95221.81;;;13.15;57.41
36192;BME280;22233;42.708;23.360;2023-03-21T06:51:12;95216.44;;;13.07;56.50
36192;BME280;22233;42.708;23.360;2023-03-21T06:53:38;95219.63;;;13.09;55.48
36192;BME280;22233;42.708;23.360;2023-03-21T06:56:06;95212.50;;;13.16;55.37
36192;BME280;22233;42.708;23.360;2023-03-21T06:58:32;95240.97;;;13.07;56.04
36192;BME280;22233;42.708;23.360;2023-03-21T07:00:59;95226.34;;;12.90;55.91
36192;BME280;22233;42.708;23.360;2023-03-21T07:03:25;95231.53;;;13.04;56.23
36192;BME280;22233;42.708;23.360;2023-03-21T07:05:51;95239.03;;;12.86;56.67
36192;BME280;22233;42.708;23.360;2023-03-21T07:08:16;95221.94;;;12.77;57.17
36192;BME280;22233;42.708;23.360;2023-03-21T07:10:43;95235.25;;;12.49;58.44
36192;BME280;22233;42.708;23.360;2023-03-21T07:13:10;95239.63;;;12.41;58.09
36192;BME280;22233;42.708;23.360;2023-03-21T07:15:35;95229.31;;;12.26;58.51
36192;BME280;22233;42.708;23.360;2023-03-21T07:18:06;95241.16;;;12.30;57.94
36192;BME280;22233;42.708;23.360;2023-03-21T07:20:32;95238.06;;;12.31;58.29
36192;BME280;22233;42.708;23.360;2023-03-21T07:22:58;95217.84;;;12.11;58.43
36192;BME280;22233;42.708;23.360;2023-03-21T07:25:25;95220.53;;;12.20;57.68
36192;BME280;22233;42.708;23.360;2023-03-21T07:27:50;95230.75;;;12.53;56.99
36192;BME280;22233;42.708;23.360;2023-03-21T07:30:16;95230.72;;;12.83;55.42
36192;BME280;22233;42.708;23.360;2023-03-21T07:32:42;95231.72;;;12.99;54.70
36192;BME280;22233;42.708;23.360;2023-03-21T07:35:11;95229.34;;;13.18;53.79
36192;BME280;22233;42.708;23.360;2023-03-21T07:37:38;95232.66;;;13.03;54.44
36192;BME280;22233;42.708;23.360;2023-03-21T07:40:05;95234.53;;;13.32;52.06
36192;BME280;22233;42.708;23.360;2023-03-21T07:42:35;95220.56;;;13.34;52.57
36192;BME280;22233;42.708;23.360;2023-03-21T07:45:02;95226.31;;;13.53;52.34
36192;BME280;22233;42.708;23.360;2023-03-21T07:47:29;95228.19;;;13.74;51.18
36192;BME280;22233;42.708;23.360;2023-03-21T07:49:54;95229.09;;;13.78;51.44
36192;BME280;22233;42.708;23.360;2023-03-21T07:52:20;95204.84;;;13.64;50.62
36192;BME280;22233;42.708;23.360;2023-03-21T07:54:45;95228.72;;;13.55;51.28
36192;BME280;22233;42.708;23.360;2023-03-21T07:57:10;95233.34;;;13.88;50.36
36192;BME280;22233;42.708;23.360;2023-03-21T07:59:36;95222.94;;;14.27;50.22
36192;BME280;22233;42.708;23.360;2023-03-21T08:02:01;95223.72;;;14.39;50.12
36192;BME280;22233;42.708;23.360;2023-03-21T08:04:27;95238.19;;;14.52;49.78
36192;BME280;22233;42.708;23.360;2023-03-21T08:06:53;95228.03;;;14.16;48.54
36192;BME280;22233;42.708;23.360;2023-03-21T08:09:18;95217.44;;;14.14;49.20
36192;BME280;22233;42.708;23.360;2023-03-21T08:11:43;95209.69;;;14.16;48.99
36192;BME280;22233;42.708;23.360;2023-03-21T08:14:09;95224.19;;;14.29;49.38
36192;BME280;22233;42.708;23.360;2023-03-21T08:16:34;95225.78;;;14.55;48.67
36192;BME280;22233;42.708;23.360;2023-03-21T08:19:00;95218.28;;;14.64;48.43
36192;BME280;22233;42.708;23.360;2023-03-21T08:21:25;95213.22;;;14.91;47.73
36192;BME280;22233;42.708;23.360;2023-03-21T08:23:52;95226.88;;;15.03;47.25
36192;BME280;22233;42.708;23.360;2023-03-21T08:26:18;95217.78;;;14.99;47.60
36192;BME280;22233;42.708;23.360;2023-03-21T08:28:44;95217.69;;;15.24;47.51
36192;BME280;22233;42.708;23.360;2023-03-21T08:31:11;95213.47;;;15.26;46.94
36192;BME280;22233;42.708;23.360;2023-03-21T08:33:37;95193.97;;;15.28;46.83
36192;BME280;22233;42.708;23.360;2023-03-21T08:36:04;95194.09;;;15.47;46.10
36192;BME280;22233;42.708;23.360;2023-03-21T08:38:30;95195.78;;;15.52;46.40
36192;BME280;22233;42.708;23.360;2023-03-21T08:40:58;95196.59;;;15.52;46.50
36192;BME280;22233;42.708;23.360;2023-03-21T08:43:25;95194.97;;;15.35;46.98
36192;BME280;22233;42.708;23.360;2023-03-21T08:45:50;95201.44;;;15.59;46.17
36192;BME280;22233;42.708;23.360;2023-03-21T08:48:16;95206.31;;;15.94;45.74
36192;BME280;22233;42.708;23.360;2023-03-21T08:50:42;95214.25;;;15.83;45.85
36192;BME280;22233;42.708;23.360;2023-03-21T08:53:08;95206.03;;;15.99;45.35
36192;BME280;22233;42.708;23.360;2023-03-21T08:55:33;95204.59;;;15.45;46.37
36192;BME280;22233;42.708;23.360;2023-03-21T08:57:59;95194.63;;;15.81;45.27
36192;BME280;22233;42.708;23.360;2023-03-21T09:00:25;95197.56;;;15.88;45.81
36192;BME280;22233;42.708;23.360;2023-03-21T09:02:52;95200.75;;;16.06;45.27
36192;BME280;22233;42.708;23.360;2023-03-21T09:05:19;95189.06;;;16.25;44.47
36192;BME280;22233;42.708;23.360;2023-03-21T09:07:44;95189.78;;;16.22;44.83
36192;BME280;22233;42.708;23.360;2023-03-21T09:10:14;95192.69;;;16.29;44.20
36192;BME280;22233;42.708;23.360;2023-03-21T09:12:40;95194.00;;;16.35;44.39
36192;BME280;22233;42.708;23.360;2023-03-21T09:15:07;95184.25;;;16.54;43.96
36192;BME280;22233;42.708;23.360;2023-03-21T09:17:33;95187.13;;;16.77;44.37
36192;BME280;22233;42.708;23.360;2023-03-21T09:19:58;95177.25;;;16.88;43.43
36192;BME280;22233;42.708;23.360;2023-03-21T09:22:26;95181.13;;;16.87;43.15
36192;BME280;22233;42.708;23.360;2023-03-21T09:24:52;95157.94;;;16.85;43.44
36192;BME280;22233;42.708;23.360;2023-03-21T09:27:18;95177.69;;;16.90;43.34
36192;BME280;22233;42.708;23.360;2023-03-21T09:29:48;95170.44;;;17.02;42.78
36192;BME280;22233;42.708;23.360;2023-03-21T09:32:14;95170.19;;;17.07;43.08
36192;BME280;22233;42.708;23.360;2023-03-21T09:34:39;95153.41;;;17.12;42.89
36192;BME280;22233;42.708;23.360;2023-03-21T09:37:09;95140.94;;;17.14;42.93
36192;BME280;22233;42.708;23.360;2023-03-21T09:39:39;95163.38;;;17.40;43.34
36192;BME280;22233;42.708;23.360;2023-03-21T09:42:12;95160.78;;;17.27;43.93
36192;BME280;22233;42.708;23.360;2023-03-21T09:45:06;95151.91;;;17.14;43.50
36192;BME280;22233;42.708;23.360;2023-03-21T09:47:43;95157.53;;;17.22;43.56
36192;BME280;22233;42.708;23.360;2023-03-21T09:50:16;95145.53;;;17.30;43.48
36192;BME280;22233;42.708;23.360;2023-03-21T09:52:57;95142.50;;;17.35;42.96
36192;BME280;22233;42.708;23.360;2023-03-21T09:55:30;95128.03;;;17.38;43.50
36192;BME280;22233;42.708;23.360;2023-03-21T10:01:14;95152.53;;;17.08;43.75
36192;BME280;22233;42.708;23.360;2023-03-21T10:03:49;95142.78;;;16.91;43.28
36192;BME280;22233;42.708;23.360;2023-03-21T10:06:15;95151.25;;;17.02;42.71
36192;BME280;22233;42.708;23.360;2023-03-21T10:08:44;95147.34;;;17.22;42.55
36192;BME280;22233;42.708;23.360;2023-03-21T10:11:16;95141.41;;;17.40;42.48
36192;BME280;22233;42.708;23.360;2023-03-21T10:13:47;95119.56;;;16.85;44.16
36192;BME280;22233;42.708;23.360;2023-03-21T10:16:25;95119.19;;;16.86;43.45
36192;BME280;22233;42.708;23.360;2023-03-21T10:18:53;95126.81;;;17.35;44.23
36192;BME280;22233;42.708;23.360;2023-03-21T10:21:22;95121.03;;;17.41;43.21
36192;BME280;22233;42.708;23.360;2023-03-21T10:23:50;95106.22;;;17.26;42.81
36192;BME280;22233;42.708;23.360;2023-03-21T10:26:18;95113.81;;;17.32;42.49
36192;BME280;22233;42.708;23.360;2023-03-21T10:28:44;95112.63;;;16.91;42.95
36192;BME280;22233;42.708;23.360;2023-03-21T10:31:15;95102.50;;;16.95;42.41
36192;BME280;22233;42.708;23.360;2023-03-21T10:33:43;95116.19;;;17.34;41.61
36192;BME280;22233;42.708;23.360;2023-03-21T10:36:14;95110.75;;;17.14;41.71
36192;BME280;22233;42.708;23.360;2023-03-21T10:38:48;95115.41;;;17.33;40.71
36192;BME280;22233;42.708;23.360;2023-03-21T10:41:14;95120.34;;;17.90;40.86
36192;BME280;22233;42.708;23.360;2023-03-21T10:43:40;95112.63;;;18.22;39.76
36192;BME280;22233;42.708;23.360;2023-03-21T10:46:17;95112.75;;;18.29;40.06
36192;BME280;22233;42.708;23.360;2023-03-21T10:48:50;95104.91;;;18.58;38.53
36192;BME280;22233;42.708;23.360;2023-03-21T10:51:21;95117.00;;;18.80;38.78
36192;BME280;22233;42.708;23.360;2023-03-21T10:54:10;95107.78;;;18.95;37.55
36192;BME280;22233;42.708;23.360;2023-03-21T10:56:56;95114.09;;;19.30;37.11
36192;BME280;22233;42.708;23.360;2023-03-21T10:59:25;95109.09;;;19.43;36.56
36192;BME280;22233;42.708;23.360;2023-03-21T11:01:54;95097.00;;;19.17;37.37
36192;BME280;22233;42.708;23.360;2023-03-21T11:04:23;95111.22;;;19.56;36.34
36192;BME280;22233;42.708;23.360;2023-03-21T11:06:56;95093.97;;;19.63;36.36
36192;BME280;22233;42.708;23.360;2023-03-21T11:09:25;95094.31;;;19.58;36.04
36192;BME280;22233;42.708;23.360;2023-03-21T11:12:08;95085.06;;;19.40;35.41
36192;BME280;22233;42.708;23.360;2023-03-21T11:14:38;95091.19;;;19.22;36.00
36192;BME280;22233;42.708;23.360;2023-03-21T11:17:19;95072.88;;;19.41;35.45
36192;BME280;22233;42.708;23.360;2023-03-21T11:19:51;95063.78;;;19.74;35.26
36192;BME280;22233;42.708;23.360;2023-03-21T11:22:20;95066.41;;;19.63;35.52
36192;BME280;22233;42.708;23.360;2023-03-21T11:24:52;95070.75;;;19.68;35.86
36192;BME280;22233;42.708;23.360;2023-03-21T11:27:18;95058.84;;;19.53;36.72
36192;BME280;22233;42.708;23.360;2023-03-21T11:29:48;95062.78;;;19.55;36.84
36192;BME280;22233;42.708;23.360;2023-03-21T11:32:41;95060.63;;;19.72;36.37
36192;BME280;22233;42.708;23.360;2023-03-21T11:35:18;95055.34;;;20.01;35.59
36192;BME280;22233;42.708;23.360;2023-03-21T11:37:49;95049.19;;;20.25;35.13
36192;BME280;22233;42.708;23.360;2023-03-21T11:40:25;95048.53;;;20.46;35.44
36192;BME280;22233;42.708;23.360;2023-03-21T11:42:54;95033.78;;;20.17;36.37
36192;BME280;22233;42.708;23.360;2023-03-21T11:45:28;95035.06;;;20.34;35.50
36192;BME280;22233;42.708;23.360;2023-03-21T11:47:57;95027.47;;;20.13;35.46
36192;BME280;22233;42.708;23.360;2023-03-21T11:50:35;95037.03;;;20.33;34.84
36192;BME280;22233;42.708;23.360;2023-03-21T12:06:46;95021.47;;;20.66;35.06
36192;BME280;22233;42.708;23.360;2023-03-21T12:14:50;94992.38;;;20.06;34.26
36192;BME280;22233;42.708;23.360;2023-03-21T12:22:40;95002.84;;;20.49;34.71
36192;BME280;22233;42.708;23.360;2023-03-21T12:25:14;95002.47;;;20.54;33.96
36192;BME280;22233;42.708;23.360;2023-03-21T12:35:44;94978.19;;;20.11;34.60
36192;BME280;22233;42.708;23.360;2023-03-21T12:39:49;94980.72;;;20.34;34.59
36192;BME280;22233;42.708;23.360;2023-03-21T12:41:56;94979.94;;;20.41;34.79
36192;BME280;22233;42.708;23.360;2023-03-21T12:44:28;94983.81;;;20.29;35.08
36192;BME280;22233;42.708;23.360;2023-03-21T12:46:59;94977.13;;;20.34;33.96
36192;BME280;22233;42.708;23.360;2023-03-21T12:49:43;94968.13;;;20.41;34.46
36192;BME280;22233;42.708;23.360;2023-03-21T12:52:18;94961.81;;;20.44;34.33
36192;BME280;22233;42.708;23.360;2023-03-21T12:54:50;94965.03;;;20.53;33.83
36192;BME280;22233;42.708;23.360;2023-03-21T12:57:38;94949.63;;;20.52;33.90
36192;BME280;22233;42.708;23.360;2023-03-21T13:03:02;94968.06;;;20.33;33.80
36192;BME280;22233;42.708;23.360;2023-03-21T13:07:59;94950.47;;;20.60;34.43
36192;BME280;22233;42.708;23.360;2023-03-21T13:10:26;94943.41;;;20.59;33.78
36192;BME280;22233;42.708;23.360;2023-03-21T13:15:48;94953.97;;;20.49;34.89
36192;BME280;22233;42.708;23.360;2023-03-21T13:20:56;94940.94;;;20.46;34.83
36192;BME280;22233;42.708;23.360;2023-03-21T13:23:23;94935.81;;;20.45;35.24
36192;BME280;22233;42.708;23.360;2023-03-21T13:25:49;94944.97;;;20.63;35.06
36192;BME280;22233;42.708;23.360;2023-03-21T13:28:27;94942.25;;;20.67;34.98
36192;BME280;22233;42.708;23.360;2023-03-21T13:31:20;94941.38;;;20.48;35.12
36192;BME280;22233;42.708;23.360;2023-03-21T13:33:48;94939.88;;;20.65;34.68
36192;BME280;22233;42.708;23.360;2023-03-21T13:36:44;94937.00;;;20.44;34.73
36192;BME280;22233;42.708;23.360;2023-03-21T13:39:26;94932.66;;;20.39;34.75
36192;BME280;22233;42.708;23.360;2023-03-21T13:41:51;94934.25;;;20.47;35.05
36192;BME280;22233;42.708;23.360;2023-03-21T13:44:43;94911.72;;;20.27;35.79
36192;BME280;22233;42.708;23.360;2023-03-21T13:47:37;94925.97;;;20.44;35.82
36192;BME280;22233;42.708;23.360;2023-03-21T13:50:19;94925.19;;;20.47;35.80
36192;BME280;22233;42.708;23.360;2023-03-21T13:55:27;94922.38;;;20.29;36.81
36192;BME280;22233;42.708;23.360;2023-03-21T13:57:53;94917.91;;;20.03;37.26
36192;BME280;22233;42.708;23.360;2023-03-21T14:00:29;94912.78;;;20.05;37.59
36192;BME280;22233;42.708;23.360;2023-03-21T14:02:58;94898.56;;;19.95;37.43
36192;BME280;22233;42.708;23.360;2023-03-21T14:05:26;94905.69;;;20.04;36.62
36192;BME280;22233;42.708;23.360;2023-03-21T14:08:00;94898.69;;;20.21;36.72
36192;BME280;22233;42.708;23.360;2023-03-21T14:10:39;94895.47;;;20.04;36.58
36192;BME280;22233;42.708;23.360;2023-03-21T14:13:07;94910.84;;;20.09;37.00
36192;BME280;22233;42.708;23.360;2023-03-21T14:15:57;94917.97;;;20.17;37.39
36192;BME280;22233;42.708;23.360;2023-03-21T14:18:26;94907.31;;;20.08;37.59
36192;BME280;22233;42.708;23.360;2023-03-21T14:20:54;94911.94;;;19.93;37.24
36192;BME280;22233;42.708;23.360;2023-03-21T14:23:20;94911.19;;;20.00;37.17
36192;BME280;22233;42.708;23.360;2023-03-21T14:25:46;94905.84;;;19.66;37.75